createdAt,value
2023-11-08T00:00:38.254Z,28.30
2023-11-08T00:03:42.904Z,29.73
2023-11-08T00:06:45.512Z,27.73
2023-11-08T00:09:48.097Z,30.83
2023-11-08T00:12:51.853Z,30.35
2023-11-08T00:15:54.297Z,30.30
2023-11-08T00:18:57.845Z,25.50
2023-11-08T00:22:00.313Z,29.45
2023-11-08T00:25:03.011Z,31.38
2023-11-08T00:28:05.689Z,27.55
2023-11-08T00:31:08.908Z,27.52
2023-11-08T00:34:14.248Z,26.60
2023-11-08T00:37:16.753Z,25.33
2023-11-08T00:40:20.205Z,27.27
2023-11-08T00:43:22.904Z,27.40
2023-11-08T00:46:26.596Z,27.30
2023-11-08T00:49:29.788Z,29.88
2023-11-08T00:55:37.237Z,22.83
2023-11-08T00:58:42.479Z,25.85
2023-11-08T01:01:44.977Z,23.48
2023-11-08T01:04:47.635Z,23.80
2023-11-08T01:07:50.551Z,27.15
2023-11-08T01:10:53.159Z,28.65
2023-11-08T01:13:57.413Z,30.50
2023-11-08T01:17:00.816Z,28.50
2023-11-08T01:20:04.559Z,26.75
2023-11-08T01:23:07.070Z,24.98
2023-11-08T01:26:11.117Z,27.83
2023-11-08T01:29:13.931Z,22.92
2023-11-08T01:32:16.408Z,25.85
2023-11-08T01:35:21.725Z,26.70
2023-11-08T01:38:24.270Z,23.55
2023-11-08T01:41:26.694Z,25.55
2023-11-08T01:44:29.134Z,23.67
2023-11-08T01:47:36.246Z,22.38
2023-11-08T01:50:38.742Z,24.25
2023-11-08T01:53:42.597Z,22.83
2023-11-08T01:56:45.579Z,21.00
2023-11-08T01:59:48.507Z,23.02
2023-11-08T02:02:50.968Z,24.17
2023-11-08T02:05:53.367Z,23.77
2023-11-08T02:08:56.405Z,25.30
2023-11-08T02:15:06.855Z,27.08
2023-11-08T02:18:10.436Z,18.88
2023-11-08T02:21:15.915Z,15.68
2023-11-08T02:24:20.115Z,9.93
2023-11-08T02:27:23.103Z,8.52
2023-11-08T02:30:25.937Z,10.77
2023-11-08T02:33:28.826Z,8.20
2023-11-08T02:36:31.507Z,7.53
2023-11-08T02:39:33.985Z,6.55
2023-11-08T02:42:36.718Z,6.75
2023-11-08T02:48:43.830Z,5.90
2023-11-08T02:51:46.533Z,7.13
2023-11-08T02:54:52.348Z,8.45
2023-11-08T02:57:55.081Z,6.78
2023-11-08T03:00:58.221Z,6.90
2023-11-08T03:07:04.011Z,4.95
2023-11-08T03:10:09.614Z,5.10
2023-11-08T03:13:12.010Z,3.83
2023-11-08T03:16:14.512Z,3.55
2023-11-08T03:19:17.294Z,3.22
2023-11-08T03:22:20.164Z,3.38
2023-11-08T03:25:22.805Z,5.03
2023-11-08T03:28:25.301Z,4.60
2023-11-08T03:31:28.554Z,3.22
2023-11-08T03:37:41.065Z,2.50
2023-11-08T03:40:44.076Z,1.83
2023-11-08T03:43:46.567Z,2.80
2023-11-08T03:46:49.735Z,2.60
2023-11-08T03:49:53.184Z,2.45
2023-11-08T03:52:55.741Z,2.58
2023-11-08T03:56:00.223Z,3.03
2023-11-08T03:59:02.625Z,3.05
2023-11-08T04:02:05.299Z,4.15
2023-11-08T04:05:08.027Z,4.40
2023-11-08T04:08:11.440Z,4.63
2023-11-08T04:11:14.197Z,3.83
2023-11-08T04:14:16.599Z,3.17
2023-11-08T04:17:21.014Z,3.72
2023-11-08T04:20:24.501Z,5.72
2023-11-08T04:23:26.879Z,4.30
2023-11-08T04:26:31.766Z,3.47
2023-11-08T04:29:34.505Z,3.58
2023-11-08T04:32:37.943Z,3.33
2023-11-08T04:35:40.433Z,3.20
2023-11-08T04:38:46.225Z,3.40
2023-11-08T04:41:50.138Z,3.55
2023-11-08T04:44:53.930Z,3.00
2023-11-08T04:47:57.442Z,2.50
2023-11-08T04:51:01.089Z,5.85
2023-11-08T04:54:03.610Z,4.35
2023-11-08T04:57:06.194Z,3.70
2023-11-08T05:00:11.761Z,3.65
2023-11-08T05:03:14.420Z,3.42
2023-11-08T05:06:16.991Z,3.55
2023-11-08T05:09:20.804Z,3.35
2023-11-08T05:12:24.011Z,4.72
2023-11-08T05:15:27.256Z,4.40
2023-11-08T05:18:29.876Z,6.03
2023-11-08T05:21:33.419Z,5.32
2023-11-08T05:24:35.829Z,5.35
2023-11-08T05:27:38.270Z,5.38
2023-11-08T05:30:42.987Z,5.07
2023-11-08T05:33:45.877Z,4.80
2023-11-08T05:36:49.103Z,5.85
2023-11-08T05:39:54.532Z,4.68
2023-11-08T05:42:57.214Z,4.43
2023-11-08T05:45:59.894Z,3.50
2023-11-08T05:49:02.867Z,3.45
2023-11-08T05:52:05.445Z,4.28
2023-11-08T05:55:09.057Z,4.43
2023-11-08T05:58:14.434Z,4.07
2023-11-08T06:01:17.912Z,5.00
2023-11-08T06:04:20.792Z,4.32
2023-11-08T06:07:24.916Z,3.55
2023-11-08T06:10:27.743Z,3.92
2023-11-08T06:13:30.241Z,4.68
2023-11-08T06:16:32.785Z,4.03
2023-11-08T06:19:35.347Z,4.40
2023-11-08T06:22:38.057Z,4.45
2023-11-08T06:25:40.548Z,4.00
2023-11-08T06:28:43.033Z,4.63
2023-11-08T06:31:45.591Z,4.90
2023-11-08T06:34:50.002Z,6.65
2023-11-08T06:37:52.789Z,4.78
2023-11-08T06:40:55.558Z,4.90
2023-11-08T06:43:58.122Z,3.72
2023-11-08T06:47:00.683Z,4.88
2023-11-08T06:50:05.224Z,4.10
2023-11-08T06:53:09.847Z,5.28
2023-11-08T06:56:13.568Z,3.70
2023-11-08T06:59:16.030Z,3.50
2023-11-08T07:02:21.602Z,3.50
2023-11-08T07:05:30.381Z,4.35
2023-11-08T07:08:39.370Z,5.07
2023-11-08T07:11:43.215Z,4.15
2023-11-08T07:14:46.046Z,3.45
2023-11-08T07:17:48.883Z,4.32
2023-11-08T07:20:51.618Z,5.18
2023-11-08T07:23:54.207Z,5.30
2023-11-08T07:26:56.697Z,3.90
2023-11-08T07:29:59.824Z,3.65
2023-11-08T07:33:02.459Z,3.25
2023-11-08T07:36:08.248Z,4.10
2023-11-08T07:39:26.698Z,3.70
2023-11-08T07:42:34.094Z,3.05
2023-11-08T07:45:36.624Z,3.75
2023-11-08T07:48:39.256Z,3.20
2023-11-08T07:51:45.661Z,3.67
2023-11-08T07:54:48.990Z,2.47
2023-11-08T07:57:51.665Z,4.50
2023-11-08T08:00:54.294Z,6.10
2023-11-08T08:03:58.445Z,2.50
2023-11-08T08:07:09.564Z,2.83
2023-11-08T08:10:13.907Z,2.92
2023-11-08T08:13:24.097Z,3.45
2023-11-08T08:16:37.687Z,3.35
2023-11-08T08:19:40.097Z,4.13
2023-11-08T08:22:42.537Z,2.78
2023-11-08T08:25:44.893Z,2.20
2023-11-08T08:28:47.494Z,2.72
2023-11-08T08:31:51.222Z,2.65
2023-11-08T08:34:53.689Z,3.78
2023-11-08T08:37:56.339Z,3.22
2023-11-08T08:40:58.734Z,3.92
2023-11-08T08:44:01.088Z,2.97
2023-11-08T08:47:03.581Z,2.30
2023-11-08T08:50:07.375Z,4.13
2023-11-08T08:53:09.806Z,2.63
2023-11-08T08:56:13.240Z,3.38
2023-11-08T08:59:15.694Z,2.63
2023-11-08T09:02:20.727Z,2.95
2023-11-08T09:05:28.449Z,4.60
2023-11-08T09:08:37.016Z,3.35
2023-11-08T09:11:42.472Z,2.08
2023-11-08T09:14:53.975Z,3.55
2023-11-08T09:17:56.753Z,2.38
2023-11-08T09:20:59.533Z,3.38
2023-11-08T09:24:03.420Z,4.82
2023-11-08T09:27:08.558Z,2.70
2023-11-08T09:30:11.458Z,2.38
2023-11-08T09:33:14.823Z,3.95
2023-11-08T09:36:19.949Z,2.42
2023-11-08T09:39:25.733Z,4.05
2023-11-08T09:42:31.414Z,2.65
2023-11-08T09:45:34.170Z,3.40
2023-11-08T09:48:36.671Z,2.65
2023-11-08T09:51:39.814Z,3.72
2023-11-08T09:54:46.103Z,4.05
2023-11-08T09:57:50.145Z,2.20
2023-11-08T10:00:56.709Z,2.50
2023-11-08T10:03:59.362Z,1.92
2023-11-08T10:07:01.892Z,2.38
2023-11-08T10:10:04.794Z,2.67
2023-11-08T10:16:10.719Z,2.90
2023-11-08T10:19:37.279Z,2.95
2023-11-08T10:22:36.422Z,2.75
2023-11-08T10:25:40.273Z,2.65
2023-11-08T10:29:00.271Z,2.42
2023-11-08T10:32:04.300Z,2.78
2023-11-08T10:35:22.725Z,2.00
2023-11-08T10:38:25.182Z,2.33
2023-11-08T10:41:28.850Z,2.05
2023-11-08T10:44:31.249Z,2.35
2023-11-08T10:47:33.682Z,2.00
2023-11-08T10:50:36.090Z,1.38
2023-11-08T10:53:40.596Z,2.03
2023-11-08T10:56:44.994Z,1.52
2023-11-08T10:59:51.619Z,3.00
2023-11-08T11:03:12.676Z,2.20
2023-11-08T11:06:15.194Z,1.90
2023-11-08T11:09:17.677Z,2.60
2023-11-08T11:12:21.825Z,4.00
2023-11-08T11:15:51.611Z,1.70
2023-11-08T11:19:01.187Z,2.03
2023-11-08T11:22:09.122Z,1.52
2023-11-08T11:25:13.689Z,2.78
2023-11-08T11:28:37.112Z,1.60
2023-11-08T11:31:42.219Z,2.92
2023-11-08T11:34:45.464Z,1.80
2023-11-08T11:38:14.595Z,1.90
2023-11-08T11:41:26.303Z,2.25
2023-11-08T11:44:50.718Z,2.13
2023-11-08T11:47:54.501Z,2.22
2023-11-08T11:50:56.930Z,1.48
2023-11-08T11:53:59.781Z,2.47
2023-11-08T12:00:10.393Z,3.40
2023-11-08T12:03:13.082Z,2.08
2023-11-08T12:06:17.441Z,2.13
2023-11-08T12:09:20.715Z,2.85
2023-11-08T12:12:28.374Z,2.47
2023-11-08T12:15:33.482Z,2.58
2023-11-08T12:18:36.420Z,2.22
2023-11-08T12:24:41.189Z,1.95
2023-11-08T12:27:44.239Z,2.92
2023-11-08T12:30:47.357Z,2.72
2023-11-08T12:33:50.590Z,1.65
2023-11-08T12:36:54.359Z,2.50
2023-11-08T12:40:19.775Z,2.03
2023-11-08T12:43:57.773Z,1.50
2023-11-08T12:46:53.038Z,2.92
2023-11-08T12:50:02.704Z,3.45
2023-11-08T12:53:10.205Z,1.83
2023-11-08T12:56:13.666Z,1.77
2023-11-08T12:59:20.118Z,2.28
2023-11-08T13:02:22.564Z,1.48
2023-11-08T13:05:25.392Z,2.35
2023-11-08T13:11:34.867Z,2.60
2023-11-08T13:14:37.508Z,2.03
2023-11-08T13:17:39.966Z,2.42
2023-11-08T13:20:46.918Z,2.92
2023-11-08T13:24:02.584Z,3.25
2023-11-08T13:27:09.737Z,2.70
2023-11-08T13:30:14.301Z,2.63
2023-11-08T13:33:16.947Z,3.65
2023-11-08T13:36:27.820Z,2.05
2023-11-08T13:39:31.050Z,2.65
2023-11-08T13:42:34.957Z,3.28
2023-11-08T13:45:38.562Z,2.47
2023-11-08T13:48:41.080Z,2.42
2023-11-08T13:51:43.904Z,3.97
2023-11-08T13:57:50.481Z,1.67
2023-11-08T14:00:53.215Z,3.53
2023-11-08T14:03:55.749Z,1.83
2023-11-08T14:06:58.593Z,4.07
2023-11-08T14:10:01.517Z,3.70
2023-11-08T14:13:05.041Z,4.03
2023-11-08T14:16:08.957Z,2.28
2023-11-08T14:19:11.614Z,2.75
2023-11-08T14:22:14.534Z,3.28
2023-11-08T14:28:20.294Z,2.70
2023-11-08T14:31:25.251Z,3.08
2023-11-08T14:34:29.189Z,2.90
2023-11-08T14:37:32.344Z,3.72
2023-11-08T14:43:54.853Z,1.98
2023-11-08T14:47:21.945Z,2.10
2023-11-08T14:50:27.202Z,1.95
2023-11-08T14:53:29.845Z,2.72
2023-11-08T14:56:32.565Z,2.25
2023-11-08T14:59:34.929Z,1.65
2023-11-08T15:02:37.614Z,3.08
2023-11-08T15:05:40.842Z,1.90
2023-11-08T15:09:50.950Z,1.90
2023-11-08T15:12:09.354Z,2.72
2023-11-08T15:15:12.011Z,1.55
2023-11-08T15:18:14.556Z,3.88
2023-11-08T15:21:17.505Z,3.63
2023-11-08T15:24:19.938Z,2.50
2023-11-08T15:27:22.557Z,3.33
2023-11-08T15:30:25.258Z,4.07
2023-11-08T15:33:27.608Z,3.10
2023-11-08T15:36:30.208Z,3.72
2023-11-08T15:39:32.741Z,4.95
2023-11-08T15:42:35.273Z,4.80
2023-11-08T15:45:38.169Z,4.00
2023-11-08T15:48:40.681Z,4.38
2023-11-08T15:51:43.246Z,4.55
2023-11-08T15:54:46.141Z,4.40
2023-11-08T15:57:48.691Z,3.72
2023-11-08T16:00:52.503Z,5.38
2023-11-08T16:03:56.256Z,5.68
2023-11-08T16:06:59.003Z,5.43
2023-11-08T16:10:01.713Z,6.75
2023-11-08T16:13:05.707Z,5.15
2023-11-08T16:16:09.106Z,5.57
2023-11-08T16:19:12.541Z,5.63
2023-11-08T16:22:15.157Z,7.07
2023-11-08T16:25:18.324Z,5.28
2023-11-08T16:28:21.253Z,6.90
2023-11-08T16:32:31.466Z,7.82
2023-11-08T16:34:50.267Z,10.90
2023-11-08T16:37:53.186Z,8.27
2023-11-08T16:40:56.075Z,7.43
2023-11-08T16:43:58.511Z,8.07
2023-11-08T16:47:01.181Z,7.93
2023-11-08T16:50:04.158Z,9.50
2023-11-08T16:53:10.666Z,8.63
2023-11-08T16:56:13.057Z,10.85
2023-11-08T16:59:15.468Z,7.57
2023-11-08T17:02:18.159Z,8.90
2023-11-08T17:05:20.799Z,11.55
2023-11-08T17:08:24.679Z,9.88
2023-11-08T17:11:27.071Z,11.63
2023-11-08T17:14:29.526Z,9.90
2023-11-08T17:17:31.988Z,10.90
2023-11-08T17:20:35.446Z,8.70
2023-11-08T17:26:40.792Z,12.23
2023-11-08T17:29:43.315Z,15.13
2023-11-08T17:32:45.819Z,14.63
2023-11-08T17:35:48.707Z,13.13
2023-11-08T17:38:52.274Z,14.70
2023-11-08T17:41:54.983Z,12.18
2023-11-08T17:44:57.365Z,14.18
2023-11-08T17:48:00.225Z,17.35
2023-11-08T17:51:04.248Z,13.93
2023-11-08T17:54:07.059Z,16.33
2023-11-08T17:57:09.508Z,18.23
2023-11-08T18:00:12.535Z,23.15
2023-11-08T18:03:14.995Z,27.23
2023-11-08T18:06:18.185Z,27.45
2023-11-08T18:09:20.966Z,41.25
2023-11-08T18:12:24.844Z,37.67
2023-11-08T18:15:27.426Z,35.15
2023-11-08T18:18:29.896Z,40.08
2023-11-08T18:21:32.259Z,39.60
2023-11-08T18:24:40.009Z,36.92
2023-11-08T18:27:42.703Z,33.80
2023-11-08T18:30:45.307Z,30.98
2023-11-08T18:33:52.041Z,29.20
2023-11-08T18:37:12.941Z,26.13
2023-11-08T18:40:15.420Z,31.63
2023-11-08T18:43:18.187Z,28.50
2023-11-08T18:47:10.900Z,34.38
2023-11-08T18:50:17.235Z,25.48
2023-11-08T18:53:30.755Z,31.02
2023-11-08T18:56:33.110Z,35.70
2023-11-08T18:59:35.529Z,30.77
2023-11-08T19:03:06.886Z,29.02
2023-11-08T19:06:11.447Z,31.05
2023-11-08T19:09:15.659Z,34.65
2023-11-08T19:12:18.067Z,33.20
2023-11-08T19:15:20.607Z,31.98
2023-11-08T19:18:24.512Z,37.05
2023-11-08T19:21:28.690Z,34.10
2023-11-08T19:24:31.123Z,32.75
2023-11-08T19:27:34.132Z,33.40
2023-11-08T19:30:36.750Z,34.20
2023-11-08T19:33:39.290Z,29.95
2023-11-08T19:36:41.812Z,36.05
2023-11-08T19:39:44.290Z,36.70
2023-11-08T19:42:46.753Z,32.20
2023-11-08T19:45:49.674Z,29.75
2023-11-08T19:48:52.479Z,34.05
2023-11-08T19:51:55.070Z,29.42
2023-11-08T19:54:57.688Z,32.08
2023-11-08T19:58:01.158Z,34.00
2023-11-08T20:01:03.977Z,31.77
2023-11-08T20:04:09.174Z,30.17
2023-11-08T20:07:11.682Z,33.05
2023-11-08T20:10:14.299Z,30.33
2023-11-08T20:13:16.984Z,26.50
2023-11-08T20:16:19.552Z,28.45
2023-11-08T20:19:22.563Z,29.30
2023-11-08T20:22:25.066Z,32.03
2023-11-08T20:25:27.920Z,28.33
2023-11-08T20:28:30.607Z,28.95
2023-11-08T20:31:33.197Z,30.35
2023-11-08T20:34:37.099Z,31.13
2023-11-08T20:37:40.561Z,30.30
2023-11-08T20:40:44.296Z,29.90
2023-11-08T20:43:46.765Z,26.88
2023-11-08T20:46:51.773Z,33.53
2023-11-08T20:49:54.577Z,30.45
2023-11-08T20:52:57.346Z,30.92
2023-11-08T20:56:00.014Z,27.63
2023-11-08T20:59:03.048Z,23.85
2023-11-08T21:02:05.652Z,29.80
2023-11-08T21:05:08.727Z,28.83
2023-11-08T21:08:11.148Z,29.33
2023-11-08T21:11:13.640Z,29.45
2023-11-08T21:14:17.153Z,30.30
2023-11-08T21:17:19.636Z,26.25
2023-11-08T21:20:22.349Z,24.52
2023-11-08T21:23:24.789Z,28.30
2023-11-08T21:26:27.349Z,27.67
2023-11-08T21:29:29.791Z,26.80
2023-11-08T21:32:32.560Z,27.92
2023-11-08T21:35:35.123Z,29.23
2023-11-08T21:38:37.696Z,26.45
2023-11-08T21:41:40.122Z,29.00
2023-11-08T21:44:43.620Z,27.58
2023-11-08T21:47:46.310Z,25.40
2023-11-08T21:50:48.996Z,27.92
2023-11-08T21:53:51.595Z,28.23
2023-11-08T21:56:53.993Z,28.20
2023-11-08T21:59:56.534Z,25.60
2023-11-08T22:02:59.708Z,24.90
2023-11-08T22:06:02.214Z,23.48
2023-11-08T22:09:05.076Z,25.83
2023-11-08T22:12:08.012Z,26.30
2023-11-08T22:15:13.256Z,26.17
2023-11-08T22:18:15.926Z,23.25
2023-11-08T22:21:18.334Z,22.60
2023-11-08T22:24:20.780Z,20.58
2023-11-08T22:27:23.927Z,20.95
2023-11-08T22:30:26.348Z,23.40
2023-11-08T22:33:28.728Z,22.83
2023-11-08T22:36:31.178Z,28.33
2023-11-08T22:39:36.652Z,25.27
2023-11-08T22:42:39.522Z,25.92
2023-11-08T22:45:41.955Z,31.02
2023-11-08T22:48:44.465Z,25.58
2023-11-08T22:51:47.202Z,25.20
2023-11-08T22:54:49.779Z,26.58
2023-11-08T22:57:52.854Z,21.85
2023-11-08T23:00:56.531Z,24.35
2023-11-08T23:04:01.996Z,24.60
2023-11-08T23:07:04.740Z,22.88
2023-11-08T23:10:08.412Z,24.17
2023-11-08T23:13:10.920Z,23.48
2023-11-08T23:16:13.635Z,23.90
2023-11-08T23:19:16.180Z,21.63
2023-11-08T23:22:19.445Z,20.05
2023-11-08T23:25:21.919Z,20.35
2023-11-08T23:28:24.613Z,19.48
2023-11-08T23:31:27.238Z,19.48
2023-11-08T23:34:29.987Z,20.75
2023-11-08T23:37:32.811Z,15.77
2023-11-08T23:40:35.231Z,21.30
2023-11-08T23:43:37.725Z,18.50
2023-11-08T23:46:40.264Z,19.77
2023-11-08T23:49:42.767Z,23.05
2023-11-08T23:52:47.142Z,16.42
2023-11-08T23:55:49.625Z,18.38
2023-11-08T23:58:52.086Z,20.95
